sensor_id;sensor_type;location;lat;lon;timestamp;P1;durP1;ratioP1;P2;durP2;ratioP2
23614;SDS011;11985;49.404;7.734;2023-02-13T00:01:43;55.72;;;23.05;;
23614;SDS011;11985;49.404;7.734;2023-02-13T00:06:44;56.20;;;22.40;;
23614;SDS011;11985;49.404;7.734;2023-02-13T00:11:48;57.25;;;23.27;;
23614;SDS011;11985;49.404;7.734;2023-02-13T00:16:49;53.72;;;22.05;;
23614;SDS011;11985;49.404;7.734;2023-02-13T00:21:51;53.97;;;23.00;;
23614;SDS011;11985;49.404;7.734;2023-02-13T00:26:54;54.83;;;21.83;;
23614;SDS011;11985;49.404;7.734;2023-02-13T00:31:55;62.72;;;23.02;;
23614;SDS011;11985;49.404;7.734;2023-02-13T00:36:57;59.75;;;22.17;;
23614;SDS011;11985;49.404;7.734;2023-02-13T00:42:00;51.28;;;20.92;;
23614;SDS011;11985;49.404;7.734;2023-02-13T00:47:01;54.78;;;21.75;;
23614;SDS011;11985;49.404;7.734;2023-02-13T00:52:03;48.33;;;20.52;;
23614;SDS011;11985;49.404;7.734;2023-02-13T00:57:06;49.25;;;21.00;;
23614;SDS011;11985;49.404;7.734;2023-02-13T01:02:07;58.95;;;21.13;;
23614;SDS011;11985;49.404;7.734;2023-02-13T01:07:09;49.40;;;21.23;;
23614;SDS011;11985;49.404;7.734;2023-02-13T01:12:12;48.05;;;20.42;;
23614;SDS011;11985;49.404;7.734;2023-02-13T01:17:13;41.53;;;18.75;;
23614;SDS011;11985;49.404;7.734;2023-02-13T01:22:16;43.40;;;19.45;;
23614;SDS011;11985;49.404;7.734;2023-02-13T01:27:19;42.50;;;18.55;;
23614;SDS011;11985;49.404;7.734;2023-02-13T01:32:21;49.40;;;19.25;;
23614;SDS011;11985;49.404;7.734;2023-02-13T01:37:22;47.20;;;19.77;;
23614;SDS011;11985;49.404;7.734;2023-02-13T01:42:26;46.88;;;20.48;;
23614;SDS011;11985;49.404;7.734;2023-02-13T01:52:41;41.20;;;18.85;;
23614;SDS011;11985;49.404;7.734;2023-02-13T01:57:50;47.03;;;18.88;;
23614;SDS011;11985;49.404;7.734;2023-02-13T02:02:57;44.13;;;20.13;;
23614;SDS011;11985;49.404;7.734;2023-02-13T02:08:02;45.15;;;20.17;;
23614;SDS011;11985;49.404;7.734;2023-02-13T02:13:10;43.88;;;18.90;;
23614;SDS011;11985;49.404;7.734;2023-02-13T02:18:13;51.13;;;20.10;;
23614;SDS011;11985;49.404;7.734;2023-02-13T02:23:28;45.03;;;19.67;;
23614;SDS011;11985;49.404;7.734;2023-02-13T02:28:59;53.22;;;20.33;;
23614;SDS011;11985;49.404;7.734;2023-02-13T02:34:23;45.38;;;19.80;;
23614;SDS011;11985;49.404;7.734;2023-02-13T02:39:35;45.85;;;18.65;;
23614;SDS011;11985;49.404;7.734;2023-02-13T02:44:45;50.08;;;20.50;;
23614;SDS011;11985;49.404;7.734;2023-02-13T02:49:59;103.28;;;19.00;;
23614;SDS011;11985;49.404;7.734;2023-02-13T02:55:14;45.10;;;18.75;;
23614;SDS011;11985;49.404;7.734;2023-02-13T03:00:23;52.63;;;20.25;;
23614;SDS011;11985;49.404;7.734;2023-02-13T03:05:46;41.05;;;17.65;;
23614;SDS011;11985;49.404;7.734;2023-02-13T03:11:10;37.80;;;18.48;;
23614;SDS011;11985;49.404;7.734;2023-02-13T03:16:29;47.22;;;19.25;;
23614;SDS011;11985;49.404;7.734;2023-02-13T03:21:52;47.28;;;18.85;;
23614;SDS011;11985;49.404;7.734;2023-02-13T03:27:19;41.72;;;18.20;;
23614;SDS011;11985;49.404;7.734;2023-02-13T03:32:53;47.78;;;19.52;;
23614;SDS011;11985;49.404;7.734;2023-02-13T03:38:04;52.45;;;19.35;;
23614;SDS011;11985;49.404;7.734;2023-02-13T03:43:14;49.97;;;19.42;;
23614;SDS011;11985;49.404;7.734;2023-02-13T03:48:18;47.40;;;18.55;;
23614;SDS011;11985;49.404;7.734;2023-02-13T03:53:42;41.75;;;17.55;;
23614;SDS011;11985;49.404;7.734;2023-02-13T03:58:49;46.53;;;17.15;;
23614;SDS011;11985;49.404;7.734;2023-02-13T04:04:12;43.90;;;17.27;;
23614;SDS011;11985;49.404;7.734;2023-02-13T04:09:22;38.65;;;16.70;;
23614;SDS011;11985;49.404;7.734;2023-02-13T04:14:28;35.72;;;16.33;;
23614;SDS011;11985;49.404;7.734;2023-02-13T04:19:34;35.40;;;15.48;;
23614;SDS011;11985;49.404;7.734;2023-02-13T04:24:38;35.35;;;15.18;;
23614;SDS011;11985;49.404;7.734;2023-02-13T04:29:40;76.00;;;15.73;;
23614;SDS011;11985;49.404;7.734;2023-02-13T04:34:42;36.30;;;13.80;;
23614;SDS011;11985;49.404;7.734;2023-02-13T04:39:44;30.67;;;13.77;;
23614;SDS011;11985;49.404;7.734;2023-02-13T04:44:46;27.08;;;12.57;;
23614;SDS011;11985;49.404;7.734;2023-02-13T04:49:47;26.23;;;12.90;;
23614;SDS011;11985;49.404;7.734;2023-02-13T04:54:50;28.58;;;12.35;;
23614;SDS011;11985;49.404;7.734;2023-02-13T04:59:53;24.92;;;12.10;;
23614;SDS011;11985;49.404;7.734;2023-02-13T05:04:54;22.98;;;11.25;;
23614;SDS011;11985;49.404;7.734;2023-02-13T05:09:57;22.92;;;10.80;;
23614;SDS011;11985;49.404;7.734;2023-02-13T05:14:59;21.73;;;10.05;;
23614;SDS011;11985;49.404;7.734;2023-02-13T05:20:00;22.27;;;10.55;;
23614;SDS011;11985;49.404;7.734;2023-02-13T05:25:03;20.38;;;10.50;;
23614;SDS011;11985;49.404;7.734;2023-02-13T05:30:05;24.60;;;11.55;;
23614;SDS011;11985;49.404;7.734;2023-02-13T05:35:08;24.25;;;10.68;;
23614;SDS011;11985;49.404;7.734;2023-02-13T05:40:12;18.63;;;9.70;;
23614;SDS011;11985;49.404;7.734;2023-02-13T05:45:14;21.33;;;10.85;;
23614;SDS011;11985;49.404;7.734;2023-02-13T05:50:15;18.35;;;10.00;;
23614;SDS011;11985;49.404;7.734;2023-02-13T05:55:19;22.20;;;10.45;;
23614;SDS011;11985;49.404;7.734;2023-02-13T06:00:20;23.95;;;11.68;;
23614;SDS011;11985;49.404;7.734;2023-02-13T06:05:22;20.55;;;10.88;;
23614;SDS011;11985;49.404;7.734;2023-02-13T06:10:25;21.60;;;9.95;;
23614;SDS011;11985;49.404;7.734;2023-02-13T06:15:26;22.77;;;10.07;;
23614;SDS011;11985;49.404;7.734;2023-02-13T06:20:28;23.55;;;11.02;;
23614;SDS011;11985;49.404;7.734;2023-02-13T06:25:31;23.20;;;10.23;;
23614;SDS011;11985;49.404;7.734;2023-02-13T06:35:35;25.42;;;10.40;;
23614;SDS011;11985;49.404;7.734;2023-02-13T06:40:38;20.90;;;9.95;;
23614;SDS011;11985;49.404;7.734;2023-02-13T06:50:43;23.90;;;10.38;;
23614;SDS011;11985;49.404;7.734;2023-02-13T06:55:46;24.98;;;10.27;;
23614;SDS011;11985;49.404;7.734;2023-02-13T07:00:48;21.08;;;11.02;;
23614;SDS011;11985;49.404;7.734;2023-02-13T07:05:50;23.05;;;10.95;;
23614;SDS011;11985;49.404;7.734;2023-02-13T07:10:53;24.95;;;10.38;;
23614;SDS011;11985;49.404;7.734;2023-02-13T07:15:54;21.50;;;9.95;;
23614;SDS011;11985;49.404;7.734;2023-02-13T07:21:00;20.40;;;9.98;;
23614;SDS011;11985;49.404;7.734;2023-02-13T07:26:04;25.90;;;10.90;;
23614;SDS011;11985;49.404;7.734;2023-02-13T07:31:06;23.98;;;10.85;;
23614;SDS011;11985;49.404;7.734;2023-02-13T07:36:07;31.55;;;11.82;;
23614;SDS011;11985;49.404;7.734;2023-02-13T07:41:10;29.30;;;12.98;;
23614;SDS011;11985;49.404;7.734;2023-02-13T07:46:12;25.33;;;11.63;;
23614;SDS011;11985;49.404;7.734;2023-02-13T07:51:13;23.52;;;10.80;;
23614;SDS011;11985;49.404;7.734;2023-02-13T07:56:16;26.48;;;11.10;;
23614;SDS011;11985;49.404;7.734;2023-02-13T08:01:18;24.58;;;11.65;;
23614;SDS011;11985;49.404;7.734;2023-02-13T08:06:20;29.92;;;12.75;;
23614;SDS011;11985;49.404;7.734;2023-02-13T08:11:24;25.50;;;11.38;;
23614;SDS011;11985;49.404;7.734;2023-02-13T08:16:49;29.25;;;11.50;;
23614;SDS011;11985;49.404;7.734;2023-02-13T08:21:51;32.65;;;12.15;;
23614;SDS011;11985;49.404;7.734;2023-02-13T08:26:55;30.20;;;12.55;;
23614;SDS011;11985;49.404;7.734;2023-02-13T08:31:57;32.88;;;12.88;;
23614;SDS011;11985;49.404;7.734;2023-02-13T08:36:59;26.90;;;12.20;;
23614;SDS011;11985;49.404;7.734;2023-02-13T08:42:02;24.95;;;11.55;;
23614;SDS011;11985;49.404;7.734;2023-02-13T08:47:04;28.30;;;12.90;;
23614;SDS011;11985;49.404;7.734;2023-02-13T08:52:05;38.53;;;14.27;;
23614;SDS011;11985;49.404;7.734;2023-02-13T08:57:09;34.45;;;16.35;;
23614;SDS011;11985;49.404;7.734;2023-02-13T09:02:10;37.85;;;16.50;;
23614;SDS011;11985;49.404;7.734;2023-02-13T09:07:12;40.83;;;16.98;;
23614;SDS011;11985;49.404;7.734;2023-02-13T09:12:15;36.17;;;16.98;;
23614;SDS011;11985;49.404;7.734;2023-02-13T09:17:16;43.00;;;17.67;;
23614;SDS011;11985;49.404;7.734;2023-02-13T09:22:18;40.15;;;17.55;;
23614;SDS011;11985;49.404;7.734;2023-02-13T09:27:21;35.75;;;17.42;;
23614;SDS011;11985;49.404;7.734;2023-02-13T09:32:23;30.95;;;14.48;;
23614;SDS011;11985;49.404;7.734;2023-02-13T09:37:24;27.48;;;13.80;;
23614;SDS011;11985;49.404;7.734;2023-02-13T09:42:28;23.10;;;11.10;;
23614;SDS011;11985;49.404;7.734;2023-02-13T09:47:36;22.65;;;11.45;;
23614;SDS011;11985;49.404;7.734;2023-02-13T09:52:42;20.30;;;9.95;;
23614;SDS011;11985;49.404;7.734;2023-02-13T09:57:48;19.98;;;9.80;;
23614;SDS011;11985;49.404;7.734;2023-02-13T10:03:06;19.08;;;9.45;;
23614;SDS011;11985;49.404;7.734;2023-02-13T10:08:20;22.90;;;9.95;;
23614;SDS011;11985;49.404;7.734;2023-02-13T10:13:39;22.33;;;11.30;;
23614;SDS011;11985;49.404;7.734;2023-02-13T10:18:51;20.23;;;11.30;;
23614;SDS011;11985;49.404;7.734;2023-02-13T10:23:56;18.20;;;9.18;;
23614;SDS011;11985;49.404;7.734;2023-02-13T10:29:03;15.55;;;8.40;;
23614;SDS011;11985;49.404;7.734;2023-02-13T10:34:27;21.17;;;9.98;;
23614;SDS011;11985;49.404;7.734;2023-02-13T10:39:36;14.77;;;8.02;;
23614;SDS011;11985;49.404;7.734;2023-02-13T10:44:43;12.55;;;6.82;;
23614;SDS011;11985;49.404;7.734;2023-02-13T10:49:55;11.00;;;7.10;;
23614;SDS011;11985;49.404;7.734;2023-02-13T10:55:14;17.05;;;6.97;;
23614;SDS011;11985;49.404;7.734;2023-02-13T11:00:39;13.73;;;6.28;;
23614;SDS011;11985;49.404;7.734;2023-02-13T11:05:46;10.13;;;5.40;;
23614;SDS011;11985;49.404;7.734;2023-02-13T11:10:48;10.35;;;5.68;;
23614;SDS011;11985;49.404;7.734;2023-02-13T11:16:02;10.07;;;5.53;;
23614;SDS011;11985;49.404;7.734;2023-02-13T11:21:07;11.93;;;5.05;;
23614;SDS011;11985;49.404;7.734;2023-02-13T11:26:11;9.20;;;4.80;;
23614;SDS011;11985;49.404;7.734;2023-02-13T11:31:24;9.43;;;4.78;;
23614;SDS011;11985;49.404;7.734;2023-02-13T11:36:29;8.20;;;4.32;;
23614;SDS011;11985;49.404;7.734;2023-02-13T11:41:36;8.02;;;4.57;;
23614;SDS011;11985;49.404;7.734;2023-02-13T11:46:45;7.32;;;4.25;;
23614;SDS011;11985;49.404;7.734;2023-02-13T11:51:49;6.72;;;3.92;;
23614;SDS011;11985;49.404;7.734;2023-02-13T11:56:53;6.80;;;3.90;;
23614;SDS011;11985;49.404;7.734;2023-02-13T12:02:02;4.97;;;2.97;;
23614;SDS011;11985;49.404;7.734;2023-02-13T12:07:18;6.70;;;3.97;;
23614;SDS011;11985;49.404;7.734;2023-02-13T12:12:24;5.60;;;3.33;;
23614;SDS011;11985;49.404;7.734;2023-02-13T12:17:31;5.13;;;3.30;;
23614;SDS011;11985;49.404;7.734;2023-02-13T12:27:43;4.30;;;2.88;;
23614;SDS011;11985;49.404;7.734;2023-02-13T12:32:58;5.88;;;2.72;;
23614;SDS011;11985;49.404;7.734;2023-02-13T12:38:12;3.85;;;2.63;;
23614;SDS011;11985;49.404;7.734;2023-02-13T12:43:33;4.20;;;2.25;;
23614;SDS011;11985;49.404;7.734;2023-02-13T12:48:51;5.13;;;2.63;;
23614;SDS011;11985;49.404;7.734;2023-02-13T12:54:07;4.68;;;2.42;;
23614;SDS011;11985;49.404;7.734;2023-02-13T12:59:26;3.90;;;2.15;;
23614;SDS011;11985;49.404;7.734;2023-02-13T13:04:43;3.22;;;2.05;;
23614;SDS011;11985;49.404;7.734;2023-02-13T13:09:53;3.97;;;1.92;;
23614;SDS011;11985;49.404;7.734;2023-02-13T13:15:04;2.95;;;1.75;;
23614;SDS011;11985;49.404;7.734;2023-02-13T13:20:21;3.65;;;1.55;;
23614;SDS011;11985;49.404;7.734;2023-02-13T13:25:39;2.13;;;1.50;;
23614;SDS011;11985;49.404;7.734;2023-02-13T13:30:48;2.75;;;1.70;;
23614;SDS011;11985;49.404;7.734;2023-02-13T13:35:54;1.73;;;1.45;;
23614;SDS011;11985;49.404;7.734;2023-02-13T13:41:04;2.05;;;1.60;;
23614;SDS011;11985;49.404;7.734;2023-02-13T13:46:14;2.67;;;1.27;;
23614;SDS011;11985;49.404;7.734;2023-02-13T13:51:23;2.63;;;1.50;;
23614;SDS011;11985;49.404;7.734;2023-02-13T13:56:25;1.60;;;1.13;;
23614;SDS011;11985;49.404;7.734;2023-02-13T14:01:27;2.00;;;1.15;;
23614;SDS011;11985;49.404;7.734;2023-02-13T14:17:53;2.20;;;1.40;;
23614;SDS011;11985;49.404;7.734;2023-02-13T14:22:55;2.15;;;1.40;;
23614;SDS011;11985;49.404;7.734;2023-02-13T14:28:16;1.58;;;1.30;;
23614;SDS011;11985;49.404;7.734;2023-02-13T14:33:26;2.15;;;1.20;;
23614;SDS011;11985;49.404;7.734;2023-02-13T14:38:30;3.08;;;1.30;;
23614;SDS011;11985;49.404;7.734;2023-02-13T14:43:37;2.00;;;1.38;;
23614;SDS011;11985;49.404;7.734;2023-02-13T14:48:50;2.10;;;1.20;;
23614;SDS011;11985;49.404;7.734;2023-02-13T14:53:58;2.20;;;1.33;;
23614;SDS011;11985;49.404;7.734;2023-02-13T14:59:09;2.30;;;1.45;;
23614;SDS011;11985;49.404;7.734;2023-02-13T15:04:16;2.78;;;1.35;;
23614;SDS011;11985;49.404;7.734;2023-02-13T15:09:27;2.03;;;1.33;;
23614;SDS011;11985;49.404;7.734;2023-02-13T15:14:34;2.67;;;1.50;;
23614;SDS011;11985;49.404;7.734;2023-02-13T15:19:36;1.50;;;1.20;;
23614;SDS011;11985;49.404;7.734;2023-02-13T15:24:44;2.20;;;1.50;;
23614;SDS011;11985;49.404;7.734;2023-02-13T15:29:56;4.05;;;1.63;;
23614;SDS011;11985;49.404;7.734;2023-02-13T15:34:59;2.65;;;1.75;;
23614;SDS011;11985;49.404;7.734;2023-02-13T15:40:14;2.78;;;1.50;;
23614;SDS011;11985;49.404;7.734;2023-02-13T15:45:19;2.28;;;1.23;;
23614;SDS011;11985;49.404;7.734;2023-02-13T15:50:23;2.78;;;1.45;;
23614;SDS011;11985;49.404;7.734;2023-02-13T15:55:30;1.85;;;1.20;;
23614;SDS011;11985;49.404;7.734;2023-02-13T16:00:38;2.45;;;1.25;;
23614;SDS011;11985;49.404;7.734;2023-02-13T16:05:41;1.85;;;1.20;;
23614;SDS011;11985;49.404;7.734;2023-02-13T16:10:46;2.00;;;1.20;;
23614;SDS011;11985;49.404;7.734;2023-02-13T16:15:49;2.05;;;1.50;;
23614;SDS011;11985;49.404;7.734;2023-02-13T16:20:52;4.40;;;1.58;;
23614;SDS011;11985;49.404;7.734;2023-02-13T16:25:54;5.10;;;1.85;;
23614;SDS011;11985;49.404;7.734;2023-02-13T16:31:05;2.55;;;1.65;;
23614;SDS011;11985;49.404;7.734;2023-02-13T16:36:16;3.45;;;1.80;;
23614;SDS011;11985;49.404;7.734;2023-02-13T16:41:29;2.55;;;1.45;;
23614;SDS011;11985;49.404;7.734;2023-02-13T16:46:34;2.00;;;1.42;;
23614;SDS011;11985;49.404;7.734;2023-02-13T16:56:41;5.57;;;2.30;;
23614;SDS011;11985;49.404;7.734;2023-02-13T17:01:46;9.45;;;4.22;;
23614;SDS011;11985;49.404;7.734;2023-02-13T17:06:50;6.55;;;3.10;;
23614;SDS011;11985;49.404;7.734;2023-02-13T17:11:54;5.35;;;2.00;;
23614;SDS011;11985;49.404;7.734;2023-02-13T17:16:57;2.70;;;1.85;;
23614;SDS011;11985;49.404;7.734;2023-02-13T17:21:59;6.28;;;2.28;;
23614;SDS011;11985;49.404;7.734;2023-02-13T17:27:01;3.90;;;1.88;;
23614;SDS011;11985;49.404;7.734;2023-02-13T17:32:04;8.05;;;1.80;;
23614;SDS011;11985;49.404;7.734;2023-02-13T17:37:07;4.85;;;1.85;;
23614;SDS011;11985;49.404;7.734;2023-02-13T17:42:20;3.17;;;2.05;;
23614;SDS011;11985;49.404;7.734;2023-02-13T17:47:25;5.03;;;2.17;;
23614;SDS011;11985;49.404;7.734;2023-02-13T17:52:26;12.40;;;3.60;;
23614;SDS011;11985;49.404;7.734;2023-02-13T17:57:28;3.42;;;1.92;;
23614;SDS011;11985;49.404;7.734;2023-02-13T18:02:31;6.70;;;3.22;;
23614;SDS011;11985;49.404;7.734;2023-02-13T18:07:34;6.68;;;2.90;;
23614;SDS011;11985;49.404;7.734;2023-02-13T18:12:36;9.35;;;3.10;;
23614;SDS011;11985;49.404;7.734;2023-02-13T18:17:40;7.30;;;3.50;;
23614;SDS011;11985;49.404;7.734;2023-02-13T18:22:42;5.55;;;3.45;;
23614;SDS011;11985;49.404;7.734;2023-02-13T18:27:43;5.68;;;2.60;;
23614;SDS011;11985;49.404;7.734;2023-02-13T18:32:48;8.20;;;3.10;;
23614;SDS011;11985;49.404;7.734;2023-02-13T18:37:51;7.88;;;3.20;;
23614;SDS011;11985;49.404;7.734;2023-02-13T18:42:53;8.80;;;3.88;;
23614;SDS011;11985;49.404;7.734;2023-02-13T18:48:00;9.85;;;4.50;;
23614;SDS011;11985;49.404;7.734;2023-02-13T18:53:02;7.55;;;4.05;;
23614;SDS011;11985;49.404;7.734;2023-02-13T18:58:04;8.60;;;4.55;;
23614;SDS011;11985;49.404;7.734;2023-02-13T19:03:07;11.75;;;4.05;;
23614;SDS011;11985;49.404;7.734;2023-02-13T19:08:08;8.65;;;4.20;;
23614;SDS011;11985;49.404;7.734;2023-02-13T19:13:10;6.75;;;4.30;;
23614;SDS011;11985;49.404;7.734;2023-02-13T19:18:13;8.00;;;4.43;;
23614;SDS011;11985;49.404;7.734;2023-02-13T19:23:14;8.23;;;4.78;;
23614;SDS011;11985;49.404;7.734;2023-02-13T19:28:16;7.68;;;4.25;;
23614;SDS011;11985;49.404;7.734;2023-02-13T19:33:18;7.45;;;4.65;;
23614;SDS011;11985;49.404;7.734;2023-02-13T19:38:20;10.20;;;4.88;;
23614;SDS011;11985;49.404;7.734;2023-02-13T19:43:22;8.40;;;5.15;;
23614;SDS011;11985;49.404;7.734;2023-02-13T19:48:24;11.55;;;5.95;;
23614;SDS011;11985;49.404;7.734;2023-02-13T19:53:26;11.32;;;5.20;;
23614;SDS011;11985;49.404;7.734;2023-02-13T19:58:28;8.38;;;5.50;;
23614;SDS011;11985;49.404;7.734;2023-02-13T20:03:31;11.93;;;6.60;;
23614;SDS011;11985;49.404;7.734;2023-02-13T20:08:33;15.95;;;6.43;;
23614;SDS011;11985;49.404;7.734;2023-02-13T20:13:35;10.75;;;6.68;;
23614;SDS011;11985;49.404;7.734;2023-02-13T20:18:38;13.38;;;6.13;;
23614;SDS011;11985;49.404;7.734;2023-02-13T20:23:40;12.45;;;6.47;;
23614;SDS011;11985;49.404;7.734;2023-02-13T20:28:43;12.63;;;6.47;;
23614;SDS011;11985;49.404;7.734;2023-02-13T20:33:47;12.25;;;6.43;;
23614;SDS011;11985;49.404;7.734;2023-02-13T20:38:51;8.27;;;4.70;;
23614;SDS011;11985;49.404;7.734;2023-02-13T20:43:56;10.88;;;5.95;;
23614;SDS011;11985;49.404;7.734;2023-02-13T20:49:00;10.65;;;5.85;;
23614;SDS011;11985;49.404;7.734;2023-02-13T20:54:02;11.18;;;5.57;;
23614;SDS011;11985;49.404;7.734;2023-02-13T20:59:04;12.75;;;5.72;;
23614;SDS011;11985;49.404;7.734;2023-02-13T21:04:07;10.73;;;5.75;;
23614;SDS011;11985;49.404;7.734;2023-02-13T21:09:10;12.05;;;5.63;;
23614;SDS011;11985;49.404;7.734;2023-02-13T21:14:12;9.30;;;5.43;;
23614;SDS011;11985;49.404;7.734;2023-02-13T21:19:16;10.73;;;5.60;;
23614;SDS011;11985;49.404;7.734;2023-02-13T21:24:20;9.43;;;4.93;;
23614;SDS011;11985;49.404;7.734;2023-02-13T21:29:22;13.57;;;5.33;;
23614;SDS011;11985;49.404;7.734;2023-02-13T21:34:25;11.98;;;5.45;;
23614;SDS011;11985;49.404;7.734;2023-02-13T21:39:27;11.45;;;5.25;;
23614;SDS011;11985;49.404;7.734;2023-02-13T21:44:28;10.68;;;5.78;;
23614;SDS011;11985;49.404;7.734;2023-02-13T21:49:31;9.68;;;5.05;;
23614;SDS011;11985;49.404;7.734;2023-02-13T21:54:34;9.10;;;5.30;;
23614;SDS011;11985;49.404;7.734;2023-02-13T21:59:35;10.98;;;5.22;;
23614;SDS011;11985;49.404;7.734;2023-02-13T22:04:40;10.55;;;5.32;;
23614;SDS011;11985;49.404;7.734;2023-02-13T22:14:43;12.32;;;5.25;;
23614;SDS011;11985;49.404;7.734;2023-02-13T22:19:46;10.60;;;5.47;;
23614;SDS011;11985;49.404;7.734;2023-02-13T22:24:49;10.25;;;5.60;;
23614;SDS011;11985;49.404;7.734;2023-02-13T22:29:50;9.85;;;5.72;;
23614;SDS011;11985;49.404;7.734;2023-02-13T22:34:53;10.85;;;5.45;;
23614;SDS011;11985;49.404;7.734;2023-02-13T22:39:55;11.40;;;5.47;;
23614;SDS011;11985;49.404;7.734;2023-02-13T22:44:56;8.90;;;5.43;;
23614;SDS011;11985;49.404;7.734;2023-02-13T22:49:59;8.05;;;4.78;;
23614;SDS011;11985;49.404;7.734;2023-02-13T22:55:01;8.45;;;4.65;;
23614;SDS011;11985;49.404;7.734;2023-02-13T23:00:03;11.40;;;5.63;;
23614;SDS011;11985;49.404;7.734;2023-02-13T23:05:11;9.40;;;4.72;;
23614;SDS011;11985;49.404;7.734;2023-02-13T23:10:13;12.07;;;4.95;;
23614;SDS011;11985;49.404;7.734;2023-02-13T23:15:14;7.90;;;4.20;;
23614;SDS011;11985;49.404;7.734;2023-02-13T23:20:18;10.70;;;5.10;;
23614;SDS011;11985;49.404;7.734;2023-02-13T23:25:20;11.43;;;5.53;;
23614;SDS011;11985;49.404;7.734;2023-02-13T23:30:23;9.57;;;5.28;;
23614;SDS011;11985;49.404;7.734;2023-02-13T23:35:26;8.63;;;5.32;;
23614;SDS011;11985;49.404;7.734;2023-02-13T23:40:28;8.77;;;4.57;;
23614;SDS011;11985;49.404;7.734;2023-02-13T23:45:29;10.10;;;4.95;;
23614;SDS011;11985;49.404;7.734;2023-02-13T23:50:32;9.85;;;4.88;;
23614;SDS011;11985;49.404;7.734;2023-02-13T23:55:34;7.85;;;4.68;;
